Time;durP1;ratioP1;P1;durP2;ratioP2;P2;SDS_P1;SDS_P2;PMS_P1;PMS_P2;Temp;Humidity;BMP_temperature;BMP_pressure;BME280_temperature;BME280_humidity;BME280_pressure;Samples;Min_cycle;Max_cycle;Signal;HPM_P1;HPM_P2
2022/01/17 04:03:02;;;;;;;3.00;1.77;;;5.80;78.70;;;;;;4994616;28;20472;-77
2022/01/17 04:05:29;;;;;;;2.90;1.80;;;5.80;78.20;;;;;;4996191;28;20448;-77
2022/01/17 04:07:56;;;;;;;3.27;2.10;;;5.90;78.10;;;;;;4996315;28;20940;-78
2022/01/17 04:10:23;;;;;;;2.87;1.67;;;5.80;78.00;;;;;;4996464;28;20453;-77
2022/01/17 04:12:49;;;;;;;3.80;2.17;;;5.90;77.90;;;;;;5015137;28;20791;-78
2022/01/17 04:15:16;;;;;;;3.10;1.97;;;6.00;77.90;;;;;;5015671;28;20448;-77
2022/01/17 04:17:43;;;;;;;3.67;2.63;;;6.00;78.00;;;;;;5013650;28;20478;-77
2022/01/17 04:20:24;;;;;;;2.97;1.93;;;6.10;77.90;;;;;;5013653;28;20455;-77
2022/01/17 04:22:51;;;;;;;3.20;2.23;;;6.10;78.00;;;;;;5013696;28;20494;-77
2022/01/17 04:25:18;;;;;;;2.80;1.70;;;6.10;78.20;;;;;;5013360;28;20460;-77
2022/01/17 04:27:46;;;;;;;3.10;2.07;;;5.90;78.60;;;;;;5013373;28;20792;-77
2022/01/17 04:30:14;;;;;;;2.80;1.93;;;5.80;79.10;;;;;;5013742;28;20448;-77
2022/01/17 04:32:41;;;;;;;3.00;2.10;;;5.80;79.70;;;;;;5013327;28;20472;-77
2022/01/17 04:35:09;;;;;;;3.90;2.27;;;5.70;80.20;;;;;;5013421;28;20502;-77
2022/01/17 04:37:38;;;;;;;2.80;1.90;;;5.70;80.20;;;;;;5013422;28;20484;-77
2022/01/17 04:40:06;;;;;;;3.30;2.27;;;5.40;81.20;;;;;;5013574;28;20448;-77
2022/01/17 04:42:33;;;;;;;3.00;2.10;;;5.40;82.00;;;;;;5013714;28;20518;-77
2022/01/17 04:45:08;;;;;;;3.20;2.00;;;5.40;82.10;;;;;;5013683;28;20448;-77
2022/01/17 04:47:36;;;;;;;3.20;1.83;;;5.50;82.10;;;;;;5017048;28;20440;-77
2022/01/17 04:50:04;;;;;;;3.33;2.10;;;5.50;81.80;;;;;;5017195;28;20456;-77
2022/01/17 04:52:31;;;;;;;2.80;1.70;;;5.50;82.00;;;;;;5017081;28;20885;-76
2022/01/17 04:55:02;;;;;;;3.50;1.90;;;5.50;81.90;;;;;;5017108;28;20452;-77
2022/01/17 04:57:29;;;;;;;3.17;2.17;;;5.70;81.70;;;;;;5016704;28;20815;-76
2022/01/17 04:59:56;;;;;;;3.50;2.33;;;5.70;81.50;;;;;;5017015;28;20939;-77
2022/01/17 05:02:23;;;;;;;2.80;1.67;;;5.60;81.60;;;;;;5016628;28;20994;-76
2022/01/17 05:04:51;;;;;;;3.10;2.07;;;5.60;81.70;;;;;;5016672;28;20942;-77
2022/01/17 05:07:18;;;;;;;3.50;2.13;;;5.70;81.90;;;;;;5016965;28;20452;-77
2022/01/17 05:09:46;;;;;;;2.90;1.83;;;5.70;81.80;;;;;;5017132;28;20506;-77
2022/01/17 05:12:14;;;;;;;3.37;2.23;;;5.80;81.40;;;;;;5017121;28;20472;-77
2022/01/17 05:14:46;;;;;;;3.10;1.97;;;5.80;81.40;;;;;;5016969;28;20456;-77
2022/01/17 05:17:35;;;;;;;3.20;2.03;;;5.90;81.30;;;;;;5017097;28;20482;-77
2022/01/17 05:20:01;;;;;;;2.90;1.70;;;5.90;80.90;;;;;;5017020;28;20421;-77
2022/01/17 05:22:33;;;;;;;3.63;2.57;;;5.50;82.00;;;;;;5017062;28;20471;-77
2022/01/17 05:25:00;;;;;;;3.10;2.10;;;5.40;82.80;;;;;;5016827;28;20494;-77
2022/01/17 05:27:28;;;;;;;3.20;1.93;;;5.50;82.80;;;;;;5016330;28;20971;-77
2022/01/17 05:29:55;;;;;;;3.50;2.57;;;5.60;82.60;;;;;;5016701;28;20871;-77
2022/01/17 05:32:22;;;;;;;3.10;1.90;;;5.60;82.60;;;;;;5016735;28;20468;-76
2022/01/17 05:34:49;;;;;;;3.00;2.00;;;5.70;82.60;;;;;;5016905;28;20445;-77
2022/01/17 05:37:16;;;;;;;3.30;2.37;;;5.60;82.80;;;;;;5016824;28;20502;-77
2022/01/17 05:39:43;;;;;;;3.07;2.10;;;5.60;82.90;;;;;;5016269;28;20479;-77
2022/01/17 05:42:14;;;;;;;2.70;1.60;;;5.50;82.90;;;;;;5016196;28;20500;-77
2022/01/17 05:44:43;;;;;;;3.10;2.10;;;5.50;83.30;;;;;;5016176;28;20432;-77
2022/01/17 05:47:10;;;;;;;3.10;1.90;;;5.50;83.10;;;;;;5015964;28;20452;-77
2022/01/17 05:49:37;;;;;;;2.90;1.70;;;5.40;83.50;;;;;;5015940;28;20826;-77
2022/01/17 05:52:04;;;;;;;3.33;2.03;;;5.30;84.10;;;;;;5015560;28;20468;-77
2022/01/17 05:54:31;;;;;;;3.20;2.00;;;5.20;84.80;;;;;;5016027;28;20576;-77
2022/01/17 05:56:58;;;;;;;3.50;2.20;;;5.30;84.70;;;;;;5015797;28;20502;-77
2022/01/17 05:59:24;;;;;;;3.17;1.90;;;5.30;84.80;;;;;;5015840;28;20480;-77
2022/01/17 06:01:52;;;;;;;3.30;2.00;;;5.20;84.70;;;;;;5015754;28;20506;-77
2022/01/17 06:04:20;;;;;;;3.37;2.00;;;5.20;85.00;;;;;;5015911;28;20448;-76
2022/01/17 06:06:47;;;;;;;3.10;1.87;;;5.10;85.10;;;;;;5015901;28;20463;-77
2022/01/17 06:09:14;;;;;;;3.13;1.90;;;5.10;85.60;;;;;;5015842;28;20447;-76
2022/01/17 06:11:41;;;;;;;3.13;2.30;;;5.00;85.80;;;;;;5015809;28;20464;-77
2022/01/17 06:14:09;;;;;;;3.00;1.60;;;5.00;86.20;;;;;;5015623;28;20448;-77
2022/01/17 06:16:36;;;;;;;3.30;2.20;;;4.80;86.50;;;;;;5015779;28;20487;-77
2022/01/17 06:19:04;;;;;;;2.70;1.50;;;4.90;86.90;;;;;;5015599;28;20498;-77
2022/01/17 06:21:31;;;;;;;2.93;1.73;;;5.00;86.70;;;;;;5015563;28;20468;-77
2022/01/17 06:24:00;;;;;;;2.93;1.80;;;5.00;86.70;;;;;;5016306;28;20856;-78
2022/01/17 06:26:26;;;;;;;2.93;1.70;;;5.00;86.70;;;;;;5015481;28;20456;-77
2022/01/17 06:28:53;;;;;;;3.17;1.97;;;5.00;86.70;;;;;;5015382;28;20448;-77
2022/01/17 06:31:20;;;;;;;2.90;1.63;;;4.90;87.00;;;;;;5015354;28;20464;-76
2022/01/17 06:33:46;;;;;;;2.80;1.80;;;5.00;86.70;;;;;;5015027;28;20939;-77
2022/01/17 06:36:14;;;;;;;2.90;1.70;;;5.00;86.60;;;;;;5015257;28;20455;-78
2022/01/17 06:38:41;;;;;;;3.17;1.90;;;5.00;86.90;;;;;;5015148;28;20480;-77
2022/01/17 06:41:08;;;;;;;3.10;1.80;;;5.00;87.00;;;;;;5014993;28;20518;-77
2022/01/17 06:43:34;;;;;;;3.33;1.87;;;5.00;86.60;;;;;;5014904;28;20871;-78
2022/01/17 06:46:01;;;;;;;2.90;1.63;;;5.00;86.80;;;;;;5015224;28;20603;-78
2022/01/17 06:48:28;;;;;;;2.70;1.60;;;5.10;86.90;;;;;;5015174;28;20444;-77
2022/01/17 06:50:55;;;;;;;3.00;1.90;;;5.30;86.40;;;;;;5014822;28;20535;-77
2022/01/17 06:53:26;;;;;;;2.90;1.73;;;5.30;86.00;;;;;;5015135;28;20456;-78
2022/01/17 06:55:53;;;;;;;2.90;1.70;;;5.20;85.90;;;;;;5014681;28;20908;-78
2022/01/17 06:58:19;;;;;;;3.43;2.17;;;5.30;86.20;;;;;;5014967;28;20448;-77
2022/01/17 07:00:46;;;;;;;4.23;1.90;;;5.30;85.70;;;;;;5014808;28;20480;-77
2022/01/17 07:03:14;;;;;;;3.00;1.70;;;5.20;86.00;;;;;;5014264;28;20912;-78
2022/01/17 07:05:40;;;;;;;3.00;1.73;;;5.20;86.30;;;;;;5014256;28;21005;-77
2022/01/17 07:08:07;;;;;;;2.90;1.80;;;5.20;86.00;;;;;;5014468;28;20502;-77
2022/01/17 07:10:35;;;;;;;2.97;1.83;;;5.20;86.60;;;;;;5014610;28;20448;-77
2022/01/17 07:13:02;;;;;;;3.00;1.77;;;5.00;86.70;;;;;;5014787;28;20440;-78
2022/01/17 07:15:29;;;;;;;3.10;1.70;;;4.90;87.10;;;;;;5014719;28;20502;-77
2022/01/17 07:17:56;;;;;;;3.10;1.40;;;4.80;87.30;;;;;;5014388;28;20526;-78
2022/01/17 07:20:23;;;;;;;3.10;1.73;;;4.70;87.90;;;;;;5014648;28;20492;-78
2022/01/17 07:22:49;;;;;;;2.90;1.80;;;4.60;88.50;;;;;;5014415;28;20522;-78
2022/01/17 07:25:16;;;;;;;2.70;1.43;;;4.60;88.90;;;;;;5014562;28;20500;-77
2022/01/17 07:27:44;;;;;;;2.80;1.70;;;4.60;89.00;;;;;;5014980;28;20455;-78
2022/01/17 07:30:12;;;;;;;3.00;1.90;;;4.50;89.10;;;;;;5023057;28;20913;-80
2022/01/17 07:32:39;;;;;;;2.90;1.80;;;4.50;89.30;;;;;;5022736;28;20568;-80
2022/01/17 07:35:08;;;;;;;2.80;1.67;;;4.50;89.20;;;;;;5022746;28;20446;-78
2022/01/17 07:37:35;;;;;;;2.83;1.67;;;4.40;89.20;;;;;;5020897;28;20448;-79
2022/01/17 07:40:03;;;;;;;3.23;2.20;;;4.40;89.50;;;;;;5016600;28;20483;-75
2022/01/17 07:42:30;;;;;;;2.80;1.93;;;4.40;89.60;;;;;;5013821;28;20456;-76
2022/01/17 07:45:08;;;;;;;2.80;1.60;;;4.40;89.50;;;;;;5018186;28;20463;-82
2022/01/17 07:47:41;;;;;;;2.83;1.70;;;4.50;89.90;;;;;;5020130;28;20445;-78
2022/01/17 07:50:13;;;;;;;3.37;1.87;;;4.50;88.70;;;;;;5017963;28;20436;-79
2022/01/17 07:52:40;;;;;;;2.97;1.63;;;4.50;89.00;;;;;;5015434;28;20515;-78
2022/01/17 07:55:07;;;;;;;2.70;1.60;;;4.50;88.80;;;;;;5019811;28;20456;-81
2022/01/17 07:57:34;;;;;;;2.90;1.57;;;4.70;89.10;;;;;;5018525;28;20542;-80
2022/01/17 08:00:02;;;;;;;3.03;1.87;;;4.80;88.10;;;;;;5019696;28;20526;-78
2022/01/17 08:02:29;;;;;;;3.00;1.70;;;4.90;87.70;;;;;;5019594;28;20480;-80
2022/01/17 08:04:56;;;;;;;2.70;1.50;;;4.80;87.50;;;;;;5018495;28;20536;-78
2022/01/17 08:07:22;;;;;;;2.80;1.50;;;4.60;87.90;;;;;;5014281;28;20873;-78
2022/01/17 08:09:49;;;;;;;2.70;1.33;;;4.60;88.60;;;;;;5014575;28;20448;-78
2022/01/17 08:12:16;;;;;;;2.80;1.57;;;4.70;88.40;;;;;;5014704;28;20583;-78
2022/01/17 08:14:43;;;;;;;2.70;1.40;;;4.70;88.10;;;;;;5022475;28;20503;-79
2022/01/17 08:17:11;;;;;;;2.77;1.40;;;5.00;87.70;;;;;;5018832;28;20498;-78
2022/01/17 08:19:38;;;;;;;3.10;1.90;;;4.90;87.20;;;;;;5019634;28;20480;-80
2022/01/17 08:22:07;;;;;;;2.90;1.40;;;4.90;87.30;;;;;;5023416;28;20514;-80
2022/01/17 08:24:35;;;;;;;2.67;1.53;;;4.90;86.80;;;;;;5025145;28;20448;-81
2022/01/17 08:27:02;;;;;;;2.93;1.70;;;5.00;86.60;;;;;;5024179;28;20484;-77
2022/01/17 08:29:29;;;;;;;2.90;1.67;;;5.00;87.00;;;;;;5026955;28;20444;-81
2022/01/17 08:31:58;;;;;;;2.80;1.40;;;5.10;86.40;;;;;;5026876;28;20479;-79
2022/01/17 08:34:26;;;;;;;2.80;1.40;;;5.00;86.50;;;;;;5025943;28;20490;-81
2022/01/17 08:36:54;;;;;;;2.80;1.60;;;5.00;86.50;;;;;;5025668;28;20993;-81
2022/01/17 08:39:20;;;;;;;2.90;1.63;;;4.90;87.10;;;;;;5023100;28;20986;-80
2022/01/17 08:41:47;;;;;;;2.87;1.70;;;4.80;87.50;;;;;;5027899;28;20494;-81
2022/01/17 08:44:14;;;;;;;3.17;1.80;;;4.80;87.10;;;;;;5028041;28;20478;-81
2022/01/17 08:46:41;;;;;;;3.40;2.00;;;4.70;87.30;;;;;;5025259;28;20448;-80
2022/01/17 08:49:08;;;;;;;2.80;1.63;;;4.80;87.30;;;;;;5026751;28;20859;-80
2022/01/17 08:51:37;;;;;;;3.00;1.53;;;4.80;87.10;;;;;;5025740;28;20495;-80
2022/01/17 08:54:05;;;;;;;3.10;1.90;;;4.80;87.20;;;;;;5024025;28;20448;-80
2022/01/17 08:56:31;;;;;;;2.80;1.80;;;4.90;87.00;;;;;;5023138;28;20871;-82
2022/01/17 08:58:59;;;;;;;2.90;1.60;;;5.20;87.20;;;;;;5023343;28;20487;-82
2022/01/17 09:01:26;;;;;;;2.60;1.30;;;5.50;84.90;;;;;;5021551;28;20482;-83
2022/01/17 09:03:53;;;;;;;2.40;1.10;;;5.90;84.00;;;;;;5024927;28;20479;-82
2022/01/17 09:06:23;;;;;;;2.80;1.63;;;5.90;82.70;;;;;;5025757;28;20849;-82
2022/01/17 09:08:51;;;;;;;3.20;1.57;;;6.00;82.30;;;;;;5023981;28;20452;-81
2022/01/17 09:11:18;;;;;;;2.90;1.63;;;6.00;81.70;;;;;;5022418;28;20468;-80
2022/01/17 09:13:44;;;;;;;2.90;1.80;;;6.20;82.00;;;;;;5018087;28;20456;-83
2022/01/17 09:16:12;;;;;;;3.10;1.53;;;6.50;81.20;;;;;;5018196;28;20463;-82
2022/01/17 09:18:38;;;;;;;3.00;1.70;;;6.60;80.70;;;;;;5017519;28;20444;-82
2022/01/17 09:21:05;;;;;;;2.60;1.23;;;6.20;81.20;;;;;;5016348;28;20487;-83
2022/01/17 09:23:32;;;;;;;2.90;1.47;;;6.10;81.90;;;;;;5016746;28;20456;-83
2022/01/17 09:26:00;;;;;;;2.63;1.43;;;6.00;82.50;;;;;;5016763;28;20857;-83
2022/01/17 09:28:28;;;;;;;3.00;1.77;;;6.10;82.30;;;;;;5017865;28;20514;-79
2022/01/17 09:30:55;;;;;;;3.50;1.80;;;5.90;83.00;;;;;;5019524;28;20564;-81
2022/01/17 09:33:21;;;;;;;2.80;1.53;;;6.10;83.00;;;;;;5020828;28;20478;-81
2022/01/17 09:35:48;;;;;;;3.10;1.70;;;6.10;82.10;;;;;;5020388;28;20477;-82
2022/01/17 09:38:15;;;;;;;2.63;1.60;;;5.90;82.30;;;;;;5019408;28;20543;-82
2022/01/17 09:40:42;;;;;;;2.90;1.70;;;5.90;82.90;;;;;;5018427;28;20484;-81
2022/01/17 09:43:10;;;;;;;2.93;1.73;;;5.80;83.40;;;;;;5018426;28;20499;-82
2022/01/17 09:45:37;;;;;;;3.13;1.77;;;6.00;83.80;;;;;;5019949;28;20468;-81
2022/01/17 09:48:06;;;;;;;2.67;1.40;;;6.10;82.70;;;;;;5019380;28;20452;-81
2022/01/17 09:50:45;;;;;;;2.83;1.87;;;6.10;83.10;;;;;;5019044;28;20540;-81
2022/01/17 09:53:15;;;;;;;2.80;1.60;;;6.00;82.10;;;;;;5018515;28;20535;-81
2022/01/17 09:55:42;;;;;;;2.87;1.43;;;6.00;82.60;;;;;;5020468;28;20436;-81
2022/01/17 09:58:11;;;;;;;3.00;1.70;;;6.00;83.00;;;;;;5019572;28;20479;-81
2022/01/17 10:00:41;;;;;;;2.90;1.53;;;6.20;83.30;;;;;;5017951;28;20983;-81
2022/01/17 10:03:10;;;;;;;2.60;1.20;;;6.30;82.50;;;;;;5021957;28;20429;-82
2022/01/17 10:05:38;;;;;;;2.67;1.33;;;6.60;81.80;;;;;;5023304;28;20499;-81
2022/01/17 10:08:06;;;;;;;2.53;1.23;;;6.70;81.00;;;;;;5020853;28;20448;-82
2022/01/17 10:10:44;;;;;;;2.97;1.57;;;6.60;79.80;;;;;;5019223;28;20814;-82
2022/01/17 10:13:16;;;;;;;2.63;1.37;;;6.60;81.50;;;;;;5017813;28;20467;-82
2022/01/17 10:16:00;;;;;;;2.80;1.53;;;6.90;81.00;;;;;;5042279;23;21635;-71
2022/01/17 10:18:30;;;;;;;3.30;1.80;;;7.00;79.60;;;;;;5015438;28;20436;-70
2022/01/17 10:21:02;;;;;;;2.93;1.60;;;6.90;79.10;;;;;;5015256;28;20484;-71
2022/01/17 10:23:44;;;;;;;3.27;1.47;;;6.60;79.90;;;;;;5015344;28;20532;-70
2022/01/17 10:26:25;;;;;;;3.10;1.50;;;6.70;80.30;;;;;;5015111;28;20471;-70
2022/01/17 10:29:29;;;;;;;2.90;1.57;;;6.60;79.50;;;;;;5015057;28;20445;-71
2022/01/17 10:34:55;;;;;;;2.87;1.83;;;7.10;78.80;;;;;;5015184;28;20415;-71
2022/01/17 10:37:23;;;;;;;2.67;1.37;;;7.00;78.10;;;;;;5015585;28;20474;-71
2022/01/17 10:39:59;;;;;;;2.93;1.53;;;6.90;79.00;;;;;;5014630;28;20914;-71
2022/01/17 10:42:28;;;;;;;2.97;1.67;;;6.90;79.40;;;;;;5015006;28;20519;-71
2022/01/17 10:45:05;;;;;;;3.13;1.50;;;6.80;79.80;;;;;;5014353;28;20452;-70
2022/01/17 10:47:32;;;;;;;2.70;1.20;;;6.80;78.70;;;;;;5014918;28;20467;-70
2022/01/17 10:50:02;;;;;;;2.80;1.40;;;6.80;79.20;;;;;;5014858;28;20448;-70
2022/01/17 10:52:35;;;;;;;2.60;1.30;;;6.80;79.40;;;;;;5014785;28;20456;-69
2022/01/17 10:55:06;;;;;;;2.70;1.50;;;6.80;79.30;;;;;;5014771;28;20500;-71
2022/01/17 10:57:39;;;;;;;2.80;1.50;;;6.80;79.30;;;;;;5014672;28;20468;-71
2022/01/17 11:00:11;;;;;;;2.60;1.40;;;6.90;79.40;;;;;;5014607;28;20566;-71
2022/01/17 11:02:39;;;;;;;2.60;1.10;;;6.90;78.50;;;;;;5014693;28;20428;-70
2022/01/17 11:05:07;;;;;;;2.70;1.20;;;6.80;79.30;;;;;;5014576;28;20444;-71
2022/01/17 11:07:40;;;;;;;2.40;0.90;;;7.00;79.30;;;;;;5014556;28;20647;-71
2022/01/17 11:10:13;;;;;;;3.37;1.30;;;7.00;78.70;;;;;;5014574;28;20421;-71
2022/01/17 11:12:39;;;;;;;2.60;1.20;;;6.90;78.10;;;;;;5014442;28;20491;-70
2022/01/17 11:15:07;;;;;;;2.60;1.00;;;6.80;79.00;;;;;;5014473;28;20448;-71
2022/01/17 11:17:37;;;;;;;2.43;1.10;;;6.80;78.80;;;;;;5014034;28;20652;-70
2022/01/17 11:20:07;;;;;;;2.33;0.90;;;6.70;78.50;;;;;;5014391;28;20964;-71
2022/01/17 11:22:36;;;;;;;2.60;1.13;;;6.70;78.40;;;;;;5014297;28;20441;-70
2022/01/17 11:25:04;;;;;;;2.30;0.90;;;6.70;78.70;;;;;;5014430;28;20539;-71
2022/01/17 11:27:31;;;;;;;2.40;1.00;;;6.90;78.50;;;;;;5014177;28;20464;-70
2022/01/17 11:29:58;;;;;;;2.40;0.80;;;7.00;77.80;;;;;;5014226;28;20448;-71
2022/01/17 11:32:26;;;;;;;2.40;1.00;;;7.10;77.60;;;;;;5014166;28;20456;-70
2022/01/17 11:34:54;;;;;;;2.50;0.80;;;7.10;77.20;;;;;;5014102;28;20864;-70
2022/01/17 11:37:22;;;;;;;2.50;1.07;;;7.10;77.50;;;;;;5013987;28;20518;-71
2022/01/17 11:39:50;;;;;;;2.80;0.90;;;7.10;77.60;;;;;;5014178;28;20447;-71
2022/01/17 11:42:35;;;;;;;2.40;1.07;;;7.10;77.00;;;;;;5013930;28;20506;-71
2022/01/17 11:45:05;;;;;;;2.50;0.87;;;7.20;77.00;;;;;;5013902;28;20451;-71
2022/01/17 11:47:51;;;;;;;2.30;0.87;;;7.30;76.50;;;;;;5013552;28;20522;-71
2022/01/17 11:50:47;;;;;;;2.40;0.90;;;7.20;76.20;;;;;;5013816;28;20506;-70
2022/01/17 11:53:40;;;;;;;2.53;0.90;;;7.40;76.20;;;;;;5013027;28;20456;-71
2022/01/17 11:56:07;;;;;;;2.40;0.93;;;7.50;75.80;;;;;;5013377;28;20518;-70
2022/01/17 11:58:40;;;;;;;2.20;0.80;;;7.40;75.90;;;;;;5013686;28;20444;-70
2022/01/17 12:01:21;;;;;;;2.37;0.90;;;7.40;75.40;;;;;;5013644;28;20979;-71
2022/01/17 12:03:52;;;;;;;2.33;0.80;;;7.40;75.60;;;;;;5014498;28;20923;-71
2022/01/17 12:06:22;;;;;;;2.37;0.80;;;7.30;75.80;;;;;;5014785;28;20480;-72
2022/01/17 12:08:50;;;;;;;2.40;0.90;;;7.30;76.40;;;;;;5014195;28;20456;-72
2022/01/17 12:11:27;;;;;;;2.30;0.90;;;7.20;76.60;;;;;;5014562;28;20452;-71
2022/01/17 12:13:59;;;;;;;2.40;0.80;;;7.40;77.00;;;;;;5014246;28;20443;-70
2022/01/17 12:16:37;;;;;;;2.43;0.80;;;7.30;77.00;;;;;;5013909;28;20511;-71
2022/01/17 12:19:12;;;;;;;2.50;0.90;;;7.40;77.30;;;;;;5014277;28;20515;-71
2022/01/17 12:21:41;;;;;;;2.60;0.90;;;7.30;76.80;;;;;;5014321;28;20471;-70
2022/01/17 12:24:35;;;;;;;2.57;1.10;;;7.30;77.70;;;;;;5013892;28;20447;-70
2022/01/17 12:27:07;;;;;;;2.40;1.00;;;7.20;77.70;;;;;;5014589;28;20464;-72
2022/01/17 12:29:43;;;;;;;2.60;1.10;;;7.20;77.60;;;;;;5014340;28;20440;-70
2022/01/17 12:32:48;;;;;;;2.50;1.07;;;7.20;77.50;;;;;;5013907;28;20939;-71
2022/01/17 12:35:20;;;;;;;2.30;0.90;;;7.10;78.00;;;;;;5013831;28;20464;-71
2022/01/17 12:37:48;;;;;;;2.50;0.90;;;7.10;78.00;;;;;;5014023;28;20487;-70
2022/01/17 12:40:18;;;;;;;2.40;1.10;;;7.20;78.00;;;;;;5013181;28;20484;-70
2022/01/17 12:43:00;;;;;;;2.37;0.80;;;7.20;77.50;;;;;;5013303;28;20448;-70
2022/01/17 12:45:30;;;;;;;2.37;0.90;;;7.10;77.90;;;;;;5013353;28;20916;-69
2022/01/17 12:47:59;;;;;;;2.30;0.90;;;7.00;77.80;;;;;;5012913;28;20900;-70
2022/01/17 12:50:28;;;;;;;2.37;1.00;;;7.00;77.30;;;;;;5013279;28;20445;-70
2022/01/17 12:52:57;;;;;;;2.40;0.90;;;7.00;77.50;;;;;;5013208;28;20448;-71
2022/01/17 12:55:25;;;;;;;2.23;0.80;;;7.00;77.70;;;;;;5013146;28;20534;-71
2022/01/17 12:57:52;;;;;;;2.40;1.00;;;7.10;76.30;;;;;;5013040;28;20856;-71
2022/01/17 13:00:21;;;;;;;2.27;0.80;;;7.20;76.20;;;;;;5013027;28;20534;-71
2022/01/17 13:02:51;;;;;;;2.30;0.90;;;7.20;75.40;;;;;;5012774;28;20791;-71
2022/01/17 13:05:23;;;;;;;2.50;1.00;;;7.00;75.30;;;;;;5012497;28;20866;-71
2022/01/17 13:07:52;;;;;;;2.30;0.80;;;7.00;75.60;;;;;;5015081;28;20849;-71
2022/01/17 13:10:19;;;;;;;2.50;1.00;;;7.00;75.90;;;;;;5016750;28;20491;-71
2022/01/17 13:12:49;;;;;;;2.50;1.20;;;7.00;75.60;;;;;;5016670;28;20448;-70
2022/01/17 13:15:16;;;;;;;2.40;1.00;;;7.20;75.20;;;;;;5016409;28;20842;-71
2022/01/17 13:17:42;;;;;;;2.27;0.83;;;7.10;74.30;;;;;;5016562;28;20440;-70
2022/01/17 13:20:10;;;;;;;2.40;1.00;;;7.10;75.40;;;;;;5016517;28;20494;-70
2022/01/17 13:22:51;;;;;;;2.80;0.90;;;7.20;75.00;;;;;;5016546;28;20491;-70
2022/01/17 13:25:20;;;;;;;2.37;0.97;;;7.20;75.00;;;;;;5016390;28;20440;-70
2022/01/17 13:27:53;;;;;;;2.33;1.00;;;7.30;74.40;;;;;;5016307;28;20460;-70
2022/01/17 13:30:19;;;;;;;2.40;1.00;;;7.30;74.20;;;;;;5016367;28;20443;-70
2022/01/17 13:32:47;;;;;;;2.60;1.00;;;7.50;74.00;;;;;;5016327;28;20498;-70
2022/01/17 13:35:20;;;;;;;2.33;0.90;;;7.40;73.70;;;;;;5016147;28;20522;-71
2022/01/17 13:37:46;;;;;;;2.40;0.90;;;7.40;73.50;;;;;;5016000;28;20926;-70
2022/01/17 13:40:16;;;;;;;2.50;1.10;;;7.30;73.60;;;;;;5016170;28;20444;-70
2022/01/17 13:42:49;;;;;;;2.40;1.00;;;7.20;73.90;;;;;;5016106;28;20459;-70
2022/01/17 13:45:28;;;;;;;2.40;0.90;;;7.00;74.10;;;;;;5016047;28;20447;-72
2022/01/17 13:47:55;;;;;;;2.40;0.93;;;7.00;74.20;;;;;;5015995;28;20429;-71
2022/01/17 13:50:22;;;;;;;2.23;0.70;;;7.00;74.10;;;;;;5015968;28;20448;-71
2022/01/17 13:52:51;;;;;;;2.30;0.90;;;7.00;74.10;;;;;;5015541;28;20876;-70
2022/01/17 13:55:33;;;;;;;2.40;0.97;;;7.00;74.00;;;;;;5015870;28;20797;-69
2022/01/17 13:58:05;;;;;;;2.60;1.10;;;6.80;74.00;;;;;;5015853;28;20440;-70
2022/01/17 14:00:37;;;;;;;2.50;0.90;;;6.90;74.20;;;;;;5015737;28;20482;-70
2022/01/17 14:03:06;;;;;;;2.50;1.10;;;7.00;74.40;;;;;;5015761;28;20444;-70
2022/01/17 14:05:34;;;;;;;2.40;0.90;;;7.00;73.90;;;;;;5015356;28;21114;-70
2022/01/17 14:08:19;;;;;;;2.53;1.20;;;6.90;73.20;;;;;;5015669;28;20444;-70
2022/01/17 14:10:51;;;;;;;2.30;0.83;;;7.00;74.10;;;;;;5015612;28;20416;-70
2022/01/17 14:13:20;;;;;;;2.40;0.97;;;7.00;73.20;;;;;;5015514;28;20440;-70
2022/01/17 14:15:48;;;;;;;2.33;0.90;;;6.90;72.90;;;;;;5015273;28;20476;-70
2022/01/17 14:18:15;;;;;;;2.60;1.07;;;6.80;73.00;;;;;;5015481;28;20425;-70
2022/01/17 14:20:51;;;;;;;2.50;1.00;;;6.80;73.00;;;;;;5015004;28;20542;-70
2022/01/17 14:23:25;;;;;;;2.40;1.00;;;6.80;74.10;;;;;;5015389;28;20531;-71
2022/01/17 14:25:52;;;;;;;2.23;0.80;;;6.90;73.30;;;;;;5015267;28;20471;-70
2022/01/17 14:28:20;;;;;;;2.40;0.90;;;7.00;73.60;;;;;;5015212;28;20448;-71
2022/01/17 14:30:48;;;;;;;2.30;0.90;;;7.20;73.40;;;;;;5015098;28;20498;-70
2022/01/17 14:33:17;;;;;;;2.60;0.97;;;7.40;72.90;;;;;;5015177;28;20444;-70
2022/01/17 14:36:16;;;;;;;2.30;0.80;;;7.40;72.40;;;;;;5015256;28;20471;-70
2022/01/17 14:38:45;;;;;;;2.30;0.83;;;7.20;72.20;;;;;;5015103;28;20448;-70
2022/01/17 14:41:23;;;;;;;3.23;1.00;;;7.20;72.80;;;;;;5014975;28;20542;-70
2022/01/17 14:43:53;;;;;;;2.50;1.10;;;7.20;72.50;;;;;;5014993;28;20532;-70
2022/01/17 14:46:24;;;;;;;2.60;0.90;;;7.20;73.20;;;;;;5014651;28;20986;-70
2022/01/17 14:48:52;;;;;;;2.40;0.90;;;7.20;73.40;;;;;;5014647;28;20443;-71
2022/01/17 14:51:21;;;;;;;2.30;0.90;;;7.30;72.50;;;;;;5014765;28;20443;-70
2022/01/17 14:53:51;;;;;;;3.07;1.30;;;7.10;72.10;;;;;;5014807;28;20534;-70
2022/01/17 15:01:54;;;;;;;2.37;0.97;;;7.10;72.70;;;;;;5014157;28;20484;-70
2022/01/17 15:04:21;;;;;;;2.30;0.87;;;7.20;72.70;;;;;;5014335;28;20912;-71
2022/01/17 15:06:47;;;;;;;2.57;0.90;;;7.30;72.30;;;;;;5014188;28;20983;-70
2022/01/17 15:09:14;;;;;;;2.40;1.10;;;7.30;71.80;;;;;;5014526;28;20842;-70
2022/01/17 15:11:42;;;;;;;2.30;0.93;;;7.20;72.20;;;;;;5014224;28;20947;-70
2022/01/17 15:14:10;;;;;;;2.80;1.17;;;7.30;72.00;;;;;;5014503;28;20506;-70
2022/01/17 15:16:40;;;;;;;2.30;0.90;;;7.30;72.10;;;;;;5014108;28;20476;-70
2022/01/17 15:19:07;;;;;;;2.47;1.10;;;7.20;72.20;;;;;;5014366;28;20452;-71
2022/01/17 15:21:34;;;;;;;2.30;0.90;;;7.20;72.50;;;;;;5014237;28;20479;-70
2022/01/17 15:24:02;;;;;;;2.87;0.97;;;7.10;72.50;;;;;;5014292;28;20514;-70
2022/01/17 15:26:28;;;;;;;2.30;0.90;;;7.10;72.30;;;;;;5014146;28;20538;-69
2022/01/17 15:28:55;;;;;;;2.50;1.10;;;6.80;73.10;;;;;;5014165;28;20530;-70
2022/01/17 15:31:23;;;;;;;2.60;1.10;;;6.80;73.60;;;;;;5013750;28;20444;-70
2022/01/17 15:33:51;;;;;;;2.40;1.13;;;6.80;73.90;;;;;;5014053;28;20449;-70
2022/01/17 15:36:18;;;;;;;2.80;1.20;;;6.60;74.10;;;;;;5014946;28;20495;-70
2022/01/17 15:38:45;;;;;;;3.33;1.70;;;6.40;74.80;;;;;;5014025;28;20459;-70
2022/01/17 15:41:14;;;;;;;2.80;1.40;;;6.30;75.20;;;;;;5013930;28;20484;-70
2022/01/17 15:43:42;;;;;;;2.40;1.10;;;6.30;75.90;;;;;;5013673;28;20802;-71
2022/01/17 15:46:09;;;;;;;2.50;1.13;;;6.40;75.30;;;;;;5013897;28;20468;-70
2022/01/17 15:48:38;;;;;;;2.87;1.50;;;6.40;75.40;;;;;;5013584;28;20932;-70
2022/01/17 15:51:06;;;;;;;2.63;1.30;;;6.30;75.30;;;;;;5013902;28;20564;-70
2022/01/17 15:53:33;;;;;;;2.60;1.47;;;6.30;75.80;;;;;;5013807;28;20863;-70
2022/01/17 15:56:01;;;;;;;2.60;1.40;;;6.20;75.90;;;;;;5013390;28;21041;-70
2022/01/17 15:58:28;;;;;;;2.90;1.50;;;6.20;76.10;;;;;;5013807;28;20483;-69
2022/01/17 16:00:55;;;;;;;2.70;1.40;;;6.30;75.70;;;;;;5013377;28;20940;-72
2022/01/17 16:03:21;;;;;;;2.90;1.40;;;6.10;75.70;;;;;;5013714;28;20459;-70
2022/01/17 16:05:49;;;;;;;2.87;1.37;;;6.10;76.10;;;;;;5013599;28;20522;-69
2022/01/17 16:08:16;;;;;;;2.43;1.17;;;6.10;76.20;;;;;;5013668;28;20498;-71
2022/01/17 16:10:48;;;;;;;2.93;1.67;;;6.10;76.60;;;;;;5013496;28;20479;-70
2022/01/17 16:13:16;;;;;;;2.57;1.20;;;6.10;76.20;;;;;;5013522;28;20437;-70
2022/01/17 16:15:43;;;;;;;2.80;1.27;;;6.20;76.40;;;;;;5014646;28;20579;-69
2022/01/17 16:18:15;;;;;;;2.60;1.40;;;6.30;76.00;;;;;;5013440;28;20429;-70
2022/01/17 16:20:43;;;;;;;2.70;1.40;;;6.30;76.20;;;;;;5013454;28;20539;-70
2022/01/17 16:23:11;;;;;;;3.20;1.73;;;6.40;76.00;;;;;;5013292;28;20480;-70
2022/01/17 16:25:38;;;;;;;2.70;1.30;;;6.40;76.30;;;;;;5012974;28;21008;-70
2022/01/17 16:28:05;;;;;;;2.57;1.33;;;6.50;76.00;;;;;;5013321;28;20510;-70
2022/01/17 16:30:31;;;;;;;2.87;1.70;;;6.70;75.20;;;;;;5013406;28;20448;-70
2022/01/17 16:32:58;;;;;;;4.83;2.40;;;6.70;75.40;;;;;;5013259;28;20444;-70
2022/01/17 16:35:25;;;;;;;2.80;1.43;;;6.60;75.30;;;;;;5012845;28;20801;-70
2022/01/17 16:37:52;;;;;;;2.77;1.67;;;6.70;74.90;;;;;;5013225;28;20440;-70
2022/01/17 16:40:20;;;;;;;3.00;1.50;;;6.70;75.30;;;;;;5013084;28;20496;-70
2022/01/17 16:42:46;;;;;;;2.90;1.60;;;6.50;75.40;;;;;;5015407;28;20479;-71
2022/01/17 16:45:13;;;;;;;2.90;1.93;;;6.60;75.30;;;;;;5017082;28;20498;-72
2022/01/17 16:47:41;;;;;;;2.60;1.37;;;6.60;75.60;;;;;;5016782;28;20920;-70
2022/01/17 16:50:08;;;;;;;2.50;1.20;;;6.60;75.30;;;;;;5016690;28;20999;-70
2022/01/17 16:52:35;;;;;;;2.60;1.53;;;6.60;75.60;;;;;;5016621;28;20995;-69
2022/01/17 16:55:04;;;;;;;2.83;1.53;;;6.50;75.40;;;;;;5016912;28;20444;-70
2022/01/17 16:57:32;;;;;;;2.83;1.50;;;6.60;75.40;;;;;;5016700;28;20515;-70
2022/01/17 16:59:58;;;;;;;2.90;1.70;;;6.60;75.30;;;;;;5016855;28;20507;-70
2022/01/17 17:02:25;;;;;;;2.63;1.53;;;6.60;75.30;;;;;;5016732;28;20531;-69
2022/01/17 17:04:52;;;;;;;3.30;1.63;;;6.60;75.30;;;;;;5016782;28;20443;-70
2022/01/17 17:07:19;;;;;;;2.80;1.70;;;6.60;75.80;;;;;;5016676;28;20521;-70
2022/01/17 17:09:46;;;;;;;3.03;1.80;;;6.60;75.80;;;;;;5016684;28;20542;-70
2022/01/17 17:12:13;;;;;;;3.20;2.00;;;6.50;75.90;;;;;;5016702;28;20535;-69
2022/01/17 17:14:41;;;;;;;2.77;1.80;;;6.50;76.20;;;;;;5016535;28;20511;-70
2022/01/17 17:17:07;;;;;;;2.90;1.70;;;6.60;75.70;;;;;;5016390;28;20526;-70
2022/01/17 17:19:34;;;;;;;2.90;1.80;;;6.40;76.00;;;;;;5016417;28;20448;-70